createdAt,value
2023-05-23T00:01:22.741Z,13.50
2023-05-23T00:03:52.725Z,13.50
2023-05-23T00:06:22.277Z,14.50
2023-05-23T00:08:50.553Z,13.25
2023-05-23T00:11:20.468Z,11.50
2023-05-23T00:13:48.684Z,11.50
2023-05-23T00:16:16.585Z,13.00
2023-05-23T00:18:45.687Z,13.50
2023-05-23T00:21:14.214Z,13.25
2023-05-23T00:23:43.346Z,12.25
2023-05-23T00:26:11.432Z,12.25
2023-05-23T00:28:40.829Z,12.00
2023-05-23T00:31:08.817Z,11.50
2023-05-23T00:33:37.127Z,10.75
2023-05-23T00:36:06.188Z,11.75
2023-05-23T00:38:34.151Z,9.50
2023-05-23T00:41:02.743Z,13.00
2023-05-23T00:43:31.611Z,10.50
2023-05-23T00:46:01.100Z,14.50
2023-05-23T00:48:29.098Z,13.00
2023-05-23T00:50:58.100Z,8.50
2023-05-23T00:53:26.331Z,11.75
2023-05-23T00:55:54.297Z,9.75
2023-05-23T00:58:22.287Z,9.50
2023-05-23T01:00:54.379Z,12.00
2023-05-23T01:03:28.626Z,10.00
2023-05-23T01:05:56.784Z,10.50
2023-05-23T01:08:24.737Z,13.00
2023-05-23T01:10:52.733Z,11.75
2023-05-23T01:13:25.358Z,9.50
2023-05-23T01:16:03.514Z,12.00
2023-05-23T01:18:34.760Z,9.50
2023-05-23T01:21:04.848Z,12.25
2023-05-23T01:24:02.548Z,8.50
2023-05-23T01:26:35.744Z,9.75
2023-05-23T01:29:10.550Z,10.00
2023-05-23T01:31:39.011Z,9.50
2023-05-23T01:34:07.364Z,10.25
2023-05-23T01:36:36.480Z,10.25
2023-05-23T01:39:04.669Z,9.75
2023-05-23T01:41:32.633Z,9.75
2023-05-23T01:44:01.368Z,10.00
2023-05-23T01:46:30.809Z,10.25
2023-05-23T01:48:58.858Z,9.00
2023-05-23T01:51:27.216Z,8.75
2023-05-23T01:53:55.569Z,9.75
2023-05-23T01:56:23.539Z,9.00
2023-05-23T01:58:51.455Z,8.25
2023-05-23T02:01:19.419Z,9.00
2023-05-23T02:03:49.061Z,7.50
2023-05-23T02:06:17.036Z,9.25
2023-05-23T02:08:44.994Z,8.50
2023-05-23T02:11:12.922Z,8.50
2023-05-23T02:13:41.217Z,7.50
2023-05-23T02:16:09.168Z,7.50
2023-05-23T02:18:38.385Z,10.00
2023-05-23T02:21:07.935Z,8.50
2023-05-23T02:23:36.140Z,7.75
2023-05-23T02:26:04.056Z,7.25
2023-05-23T02:28:32.068Z,8.00
2023-05-23T02:31:00.021Z,7.50
2023-05-23T02:33:28.279Z,6.75
2023-05-23T02:38:38.770Z,7.25
2023-05-23T02:41:06.794Z,8.75
2023-05-23T02:43:34.748Z,6.50
2023-05-23T02:46:03.083Z,7.50
2023-05-23T02:48:30.995Z,8.00
2023-05-23T02:50:59.060Z,8.00
2023-05-23T02:53:27.631Z,8.25
2023-05-23T02:55:56.921Z,9.00
2023-05-23T02:58:25.404Z,7.75
2023-05-23T03:00:53.340Z,6.50
2023-05-23T03:03:22.012Z,8.25
2023-05-23T03:05:50.136Z,6.75
2023-05-23T03:08:18.093Z,8.50
2023-05-23T03:10:46.060Z,8.75
2023-05-23T03:13:16.153Z,6.50
2023-05-23T03:15:44.119Z,6.00
2023-05-23T03:18:12.790Z,7.25
2023-05-23T03:20:40.765Z,7.00
2023-05-23T03:23:08.752Z,6.75
2023-05-23T03:25:37.361Z,6.75
2023-05-23T03:28:05.477Z,6.75
2023-05-23T03:30:34.957Z,9.25
2023-05-23T03:33:03.192Z,6.50
2023-05-23T03:35:31.490Z,6.75
2023-05-23T03:37:59.515Z,7.75
2023-05-23T03:40:27.525Z,5.75
2023-05-23T03:43:03.776Z,7.25
2023-05-23T03:45:31.895Z,7.00
2023-05-23T03:48:01.339Z,9.50
2023-05-23T03:50:29.452Z,7.25
2023-05-23T03:52:57.362Z,7.25
2023-05-23T03:55:25.814Z,7.00
2023-05-23T03:57:53.804Z,6.75
2023-05-23T04:00:21.808Z,6.75
2023-05-23T04:02:50.146Z,7.50
2023-05-23T04:05:19.930Z,6.75
2023-05-23T04:07:47.868Z,7.50
2023-05-23T04:10:15.824Z,7.50
2023-05-23T04:12:43.765Z,7.50
2023-05-23T04:15:12.233Z,8.50
2023-05-23T04:17:40.270Z,6.75
2023-05-23T04:20:10.222Z,9.25
2023-05-23T04:22:39.762Z,9.50
2023-05-23T04:25:09.533Z,10.00
2023-05-23T04:27:40.348Z,9.00
2023-05-23T04:30:12.051Z,10.00
2023-05-23T04:32:40.210Z,10.75
2023-05-23T04:35:09.190Z,9.50
2023-05-23T04:37:37.902Z,10.75
2023-05-23T04:40:08.223Z,12.25
2023-05-23T04:42:36.174Z,10.25
2023-05-23T04:45:04.683Z,10.00
2023-05-23T04:47:36.978Z,11.50
2023-05-23T04:50:05.736Z,11.25
2023-05-23T04:52:34.440Z,11.50
2023-05-23T04:55:02.789Z,11.75
2023-05-23T04:57:32.457Z,11.25
2023-05-23T05:00:01.102Z,10.25
2023-05-23T05:02:33.872Z,12.00
2023-05-23T05:05:02.216Z,10.50
2023-05-23T05:07:30.393Z,13.00
2023-05-23T05:10:00.902Z,11.50
2023-05-23T05:12:29.215Z,11.25
2023-05-23T05:14:58.879Z,9.50
2023-05-23T05:17:26.856Z,11.25
2023-05-23T05:19:54.876Z,11.25
2023-05-23T05:22:23.348Z,10.50
2023-05-23T05:24:51.607Z,11.00
2023-05-23T05:27:19.602Z,11.50
2023-05-23T05:29:50.101Z,10.50
2023-05-23T05:32:19.460Z,11.25
2023-05-23T05:34:49.510Z,9.50
2023-05-23T05:37:17.719Z,10.50
2023-05-23T05:39:45.626Z,9.75
2023-05-23T05:42:13.603Z,9.75
2023-05-23T05:44:41.820Z,12.25
2023-05-23T05:47:09.769Z,9.00
2023-05-23T05:49:39.100Z,10.75
2023-05-23T05:52:08.221Z,9.50
2023-05-23T05:54:37.673Z,9.25
2023-05-23T05:57:06.106Z,9.75
2023-05-23T05:59:34.121Z,10.00
2023-05-23T06:02:02.121Z,10.00
2023-05-23T06:04:30.408Z,9.25
2023-05-23T06:06:59.825Z,9.75
2023-05-23T06:09:27.753Z,8.75
2023-05-23T06:11:55.877Z,9.75
2023-05-23T06:14:24.186Z,8.75
2023-05-23T06:16:52.610Z,9.25
2023-05-23T06:19:20.654Z,9.50
2023-05-23T06:21:48.885Z,9.00
2023-05-23T06:24:18.464Z,9.25
2023-05-23T06:26:46.394Z,9.50
2023-05-23T06:29:14.498Z,9.25
2023-05-23T06:31:42.506Z,9.00
2023-05-23T06:34:10.624Z,9.25
2023-05-23T06:36:38.619Z,8.50
2023-05-23T06:39:06.857Z,9.50
2023-05-23T06:41:36.217Z,8.50
2023-05-23T06:44:04.487Z,10.50
2023-05-23T06:46:32.478Z,9.00
2023-05-23T06:49:13.605Z,8.50
2023-05-23T06:51:42.305Z,9.75
2023-05-23T06:54:10.660Z,10.00
2023-05-23T06:56:41.262Z,9.50
2023-05-23T06:59:09.249Z,8.50
2023-05-23T07:01:37.399Z,10.25
2023-05-23T07:04:05.400Z,9.00
2023-05-23T07:06:33.397Z,9.75
2023-05-23T07:09:01.368Z,9.25
2023-05-23T07:11:29.297Z,7.25
2023-05-23T07:13:58.624Z,6.50
2023-05-23T07:16:26.613Z,9.50
2023-05-23T07:18:54.981Z,10.00
2023-05-23T07:21:22.936Z,9.50
2023-05-23T07:23:50.883Z,9.75
2023-05-23T07:26:19.065Z,9.50
2023-05-23T07:28:47.097Z,8.50
2023-05-23T07:31:16.443Z,9.50
2023-05-23T07:33:44.465Z,9.00
2023-05-23T07:36:12.527Z,7.50
2023-05-23T07:38:40.763Z,9.50
2023-05-23T07:41:12.016Z,9.00
2023-05-23T07:43:40.757Z,9.50
2023-05-23T07:46:08.936Z,10.50
2023-05-23T07:48:38.577Z,9.50
2023-05-23T07:51:06.571Z,9.25
2023-05-23T07:53:34.986Z,9.25
2023-05-23T07:56:02.949Z,8.25
2023-05-23T07:58:31.172Z,7.75
2023-05-23T08:00:59.710Z,8.50
2023-05-23T08:03:27.750Z,8.00
2023-05-23T08:05:57.139Z,9.50
2023-05-23T08:08:25.425Z,10.25
2023-05-23T08:10:53.427Z,9.50
2023-05-23T08:13:21.535Z,8.75
2023-05-23T08:15:49.501Z,9.50
2023-05-23T08:18:18.232Z,9.75
2023-05-23T08:20:46.337Z,8.00
2023-05-23T08:23:15.694Z,10.00
2023-05-23T08:25:43.678Z,7.75
2023-05-23T08:28:11.930Z,9.50
2023-05-23T08:30:40.039Z,8.25
2023-05-23T08:33:08.375Z,8.00
2023-05-23T08:35:36.702Z,8.50
2023-05-23T08:38:07.813Z,7.50
2023-05-23T08:40:37.439Z,9.75
2023-05-23T08:43:05.735Z,9.25
2023-05-23T08:45:34.867Z,9.00
2023-05-23T08:48:02.978Z,8.50
2023-05-23T08:50:31.864Z,8.50
2023-05-23T08:53:00.233Z,8.75
2023-05-23T08:55:29.110Z,8.50
2023-05-23T08:57:59.611Z,9.00
2023-05-23T09:02:55.634Z,9.25
2023-05-23T09:05:23.646Z,10.50
2023-05-23T09:07:52.330Z,10.00
2023-05-23T09:10:21.036Z,9.75
2023-05-23T09:12:48.959Z,11.00
2023-05-23T09:15:18.631Z,11.00
2023-05-23T09:17:46.984Z,10.50
2023-05-23T09:20:15.669Z,11.00
2023-05-23T09:22:47.021Z,13.50
2023-05-23T09:25:15.128Z,11.75
2023-05-23T09:27:46.652Z,12.00
2023-05-23T09:30:16.209Z,11.50
2023-05-23T09:32:46.139Z,14.00
2023-05-23T09:35:14.529Z,13.00
2023-05-23T09:37:46.032Z,13.75
2023-05-23T09:40:15.655Z,14.00
2023-05-23T09:42:44.312Z,11.75
2023-05-23T09:45:13.034Z,10.75
2023-05-23T09:47:41.334Z,12.25
2023-05-23T09:50:11.345Z,13.00
2023-05-23T09:52:39.448Z,12.25
2023-05-23T09:55:08.537Z,12.25
2023-05-23T09:57:37.143Z,14.00
2023-05-23T10:00:14.258Z,10.25
2023-05-23T10:03:02.232Z,16.50
2023-05-23T10:05:36.593Z,14.00
2023-05-23T10:08:08.963Z,11.00
2023-05-23T10:10:36.934Z,14.25
2023-05-23T10:13:05.577Z,11.50
2023-05-23T10:15:37.259Z,12.75
2023-05-23T10:18:07.828Z,12.50
2023-05-23T10:20:37.798Z,11.50
2023-05-23T10:23:06.857Z,13.50
2023-05-23T10:25:37.092Z,15.00
2023-05-23T10:28:05.251Z,14.00
2023-05-23T10:30:33.243Z,21.50
2023-05-23T10:33:01.218Z,33.50
2023-05-23T10:38:23.441Z,22.25
2023-05-23T10:40:54.947Z,30.00
2023-05-23T10:43:27.144Z,18.50
2023-05-23T10:45:55.170Z,20.25
2023-05-23T10:48:23.901Z,18.00
2023-05-23T10:51:06.172Z,21.75
2023-05-23T10:53:36.357Z,17.50
2023-05-23T10:56:06.358Z,16.75
2023-05-23T10:58:34.414Z,18.50
2023-05-23T11:01:03.316Z,20.25
2023-05-23T11:03:38.590Z,19.25
2023-05-23T11:06:07.017Z,19.75
2023-05-23T11:08:47.597Z,15.75
2023-05-23T11:11:16.987Z,18.25
2023-05-23T11:14:00.462Z,14.75
2023-05-23T11:16:29.216Z,22.50
2023-05-23T11:19:23.066Z,16.25
2023-05-23T11:21:51.607Z,18.50
2023-05-23T11:24:21.225Z,16.25
2023-05-23T11:27:00.156Z,16.00
2023-05-23T11:29:29.584Z,19.00
2023-05-23T11:31:57.728Z,20.25
2023-05-23T11:34:26.844Z,18.50
2023-05-23T11:36:55.813Z,16.50
2023-05-23T11:39:25.217Z,14.25
2023-05-23T11:42:01.392Z,16.25
2023-05-23T11:44:29.341Z,15.75
2023-05-23T11:47:01.623Z,14.75
2023-05-23T11:49:30.874Z,14.50
2023-05-23T11:51:59.402Z,14.25
2023-05-23T11:54:29.048Z,12.25
2023-05-23T11:56:57.100Z,13.75
2023-05-23T11:59:26.118Z,16.00
2023-05-23T12:01:54.433Z,19.75
2023-05-23T12:04:22.609Z,15.25
2023-05-23T12:06:50.959Z,19.50
2023-05-23T12:09:19.016Z,12.50
2023-05-23T12:11:49.743Z,14.50
2023-05-23T12:14:18.681Z,13.75
2023-05-23T12:16:47.390Z,12.00
2023-05-23T12:19:15.543Z,12.75
2023-05-23T12:21:44.680Z,13.50
2023-05-23T12:24:16.052Z,12.25
2023-05-23T12:26:52.465Z,16.00
2023-05-23T12:29:22.323Z,13.00
2023-05-23T12:31:51.912Z,14.00
2023-05-23T12:34:21.832Z,13.00
2023-05-23T12:36:53.471Z,16.25
2023-05-23T12:39:28.180Z,13.00
2023-05-23T12:41:58.495Z,14.25
2023-05-23T12:44:31.446Z,16.25
2023-05-23T12:46:59.635Z,13.25
2023-05-23T12:49:27.790Z,9.50
2023-05-23T12:51:55.931Z,12.50
2023-05-23T12:54:24.145Z,15.25
2023-05-23T12:56:52.152Z,14.00
2023-05-23T12:59:21.528Z,12.50
2023-05-23T13:01:49.478Z,14.50
2023-05-23T13:04:17.962Z,11.75
2023-05-23T13:06:46.071Z,12.75
2023-05-23T13:09:14.055Z,14.00
2023-05-23T13:11:42.696Z,13.50
2023-05-23T13:14:10.926Z,11.00
2023-05-23T13:16:40.710Z,14.25
2023-05-23T13:19:08.737Z,11.00
2023-05-23T13:21:36.806Z,12.00
2023-05-23T13:24:04.926Z,13.00
2023-05-23T13:26:32.889Z,12.50
2023-05-23T13:29:00.911Z,12.00
2023-05-23T13:31:29.345Z,12.00
2023-05-23T13:33:59.071Z,12.75
2023-05-23T13:36:27.727Z,12.00
2023-05-23T13:38:55.692Z,11.25
2023-05-23T13:41:23.654Z,14.50
2023-05-23T13:43:51.908Z,11.00
2023-05-23T13:46:19.894Z,13.00
2023-05-23T13:48:47.842Z,12.25
2023-05-23T13:51:17.483Z,11.50
2023-05-23T13:53:45.803Z,13.50
2023-05-23T13:56:13.775Z,12.50
2023-05-23T13:58:42.937Z,11.50
2023-05-23T14:03:38.659Z,12.00
2023-05-23T14:06:07.856Z,12.25
2023-05-23T14:08:37.233Z,13.00
2023-05-23T14:11:05.176Z,15.00
2023-05-23T14:13:33.813Z,13.75
2023-05-23T14:16:01.901Z,14.00
2023-05-23T14:18:30.171Z,13.00
2023-05-23T14:20:58.143Z,12.50
2023-05-23T14:23:26.150Z,14.00
2023-05-23T14:25:55.537Z,14.00
2023-05-23T14:28:23.803Z,14.75
2023-05-23T14:30:51.792Z,15.75
2023-05-23T14:33:20.124Z,14.50
2023-05-23T14:35:48.158Z,14.00
2023-05-23T14:38:16.295Z,14.50
2023-05-23T14:40:44.507Z,13.00
2023-05-23T14:43:14.028Z,11.75
2023-05-23T14:45:42.292Z,13.25
2023-05-23T14:48:11.532Z,12.25
2023-05-23T14:50:39.613Z,12.75
2023-05-23T14:53:07.564Z,12.25
2023-05-23T14:55:35.605Z,14.25
2023-05-23T14:58:03.667Z,14.00
2023-05-23T15:00:33.492Z,12.25
2023-05-23T15:03:01.556Z,14.50
2023-05-23T15:05:29.590Z,11.75
2023-05-23T15:07:57.595Z,14.50
2023-05-23T15:10:26.162Z,11.25
2023-05-23T15:12:54.181Z,13.50
2023-05-23T15:15:23.531Z,13.75
2023-05-23T15:17:53.139Z,11.00
2023-05-23T15:20:22.503Z,12.25
2023-05-23T15:22:50.482Z,14.75
2023-05-23T15:25:26.990Z,13.50
2023-05-23T15:28:02.125Z,14.25
2023-05-23T15:30:30.362Z,11.50
2023-05-23T15:33:01.543Z,11.75
2023-05-23T15:35:29.886Z,12.50
2023-05-23T15:37:57.875Z,12.50
2023-05-23T15:40:25.975Z,12.00
2023-05-23T15:42:54.043Z,12.50
2023-05-23T15:45:22.223Z,12.25
2023-05-23T15:47:50.219Z,11.75
2023-05-23T15:50:20.151Z,15.00
2023-05-23T15:52:48.092Z,13.25
2023-05-23T15:55:16.094Z,15.00
2023-05-23T15:57:44.061Z,11.50
2023-05-23T16:02:49.102Z,12.25
2023-05-23T16:05:17.122Z,12.50
2023-05-23T16:07:46.765Z,13.00
2023-05-23T16:10:14.745Z,12.50
2023-05-23T16:12:42.705Z,12.00
2023-05-23T16:15:11.702Z,11.00
2023-05-23T16:17:39.660Z,10.75
2023-05-23T16:20:08.914Z,13.00
2023-05-23T16:22:36.878Z,13.75
2023-05-23T16:25:08.000Z,12.00
2023-05-23T16:27:36.111Z,14.25
2023-05-23T16:30:04.238Z,11.75
2023-05-23T16:32:32.215Z,11.50
2023-05-23T16:35:00.200Z,13.75
2023-05-23T16:37:28.501Z,12.00
2023-05-23T16:39:56.506Z,14.00
2023-05-23T16:42:25.838Z,11.75
2023-05-23T16:44:54.481Z,11.25
2023-05-23T16:47:22.785Z,11.50
2023-05-23T16:49:50.927Z,9.25
2023-05-23T16:52:19.347Z,11.00
2023-05-23T16:54:47.335Z,10.50
2023-05-23T16:57:15.680Z,12.75
2023-05-23T16:59:45.472Z,9.75
2023-05-23T17:02:13.734Z,9.50
2023-05-23T17:04:41.728Z,10.00
2023-05-23T17:07:09.720Z,13.25
2023-05-23T17:09:38.991Z,11.50
2023-05-23T17:12:07.606Z,10.00
2023-05-23T17:14:35.712Z,10.00
2023-05-23T17:17:05.508Z,9.75
2023-05-23T17:19:33.651Z,9.25
2023-05-23T17:22:03.123Z,12.50
2023-05-23T17:24:31.892Z,9.50
2023-05-23T17:26:59.844Z,11.25
2023-05-23T17:29:27.812Z,11.25
2023-05-23T17:31:56.004Z,9.50
2023-05-23T17:34:25.569Z,10.75
2023-05-23T17:36:53.568Z,10.00
2023-05-23T17:39:21.830Z,10.25
2023-05-23T17:41:49.773Z,10.00
2023-05-23T17:44:17.691Z,10.25
2023-05-23T17:46:45.776Z,11.50
2023-05-23T17:49:14.298Z,9.50
2023-05-23T17:51:43.636Z,8.25
2023-05-23T17:54:11.613Z,8.25
2023-05-23T17:56:39.526Z,11.00
2023-05-23T17:59:07.775Z,9.00
2023-05-23T18:01:35.972Z,10.00
2023-05-23T18:04:04.033Z,10.75
2023-05-23T18:06:32.066Z,7.25
2023-05-23T18:09:01.885Z,8.00
2023-05-23T18:11:30.388Z,7.50
2023-05-23T18:13:58.331Z,8.75
2023-05-23T18:16:26.700Z,7.75
2023-05-23T18:18:54.645Z,8.75
2023-05-23T18:21:22.632Z,7.75
2023-05-23T18:23:50.852Z,8.75
2023-05-23T18:26:20.198Z,8.00
2023-05-23T18:28:48.198Z,7.50
2023-05-23T18:31:16.128Z,8.50
2023-05-23T18:33:44.168Z,7.50
2023-05-23T18:36:12.245Z,6.75
2023-05-23T18:38:41.688Z,7.75
2023-05-23T18:41:13.206Z,7.00
2023-05-23T18:43:44.083Z,7.50
2023-05-23T18:46:12.168Z,8.00
2023-05-23T18:48:40.762Z,7.50
2023-05-23T18:51:08.770Z,6.75
2023-05-23T18:53:36.765Z,6.50
2023-05-23T18:56:05.162Z,8.25
2023-05-23T18:58:33.414Z,5.25
2023-05-23T19:01:03.922Z,8.00
2023-05-23T19:03:33.630Z,8.00
2023-05-23T19:06:03.328Z,6.50
2023-05-23T19:08:31.317Z,6.00
2023-05-23T19:10:59.664Z,7.50
2023-05-23T19:13:27.582Z,6.75
2023-05-23T19:15:55.592Z,6.50
2023-05-23T19:18:24.983Z,7.50
2023-05-23T19:20:53.208Z,6.25
2023-05-23T19:23:21.391Z,6.75
2023-05-23T19:25:49.521Z,6.75
2023-05-23T19:28:17.752Z,6.75
2023-05-23T19:30:45.657Z,5.75
2023-05-23T19:33:14.656Z,6.50
2023-05-23T19:35:44.261Z,6.00
2023-05-23T19:38:12.303Z,6.50
2023-05-23T19:40:40.486Z,7.00
2023-05-23T19:43:08.544Z,6.00
2023-05-23T19:45:37.224Z,6.25
2023-05-23T19:48:05.587Z,5.75
2023-05-23T19:50:33.736Z,5.50
2023-05-23T19:53:03.101Z,7.50
2023-05-23T19:55:31.065Z,6.00
2023-05-23T19:57:59.118Z,5.25
2023-05-23T20:00:27.033Z,7.50
2023-05-23T20:02:56.797Z,6.50
2023-05-23T20:05:25.417Z,6.25
2023-05-23T20:07:53.539Z,5.50
2023-05-23T20:10:22.975Z,5.50
2023-05-23T20:12:50.918Z,5.50
2023-05-23T20:15:31.226Z,6.25
2023-05-23T20:18:07.262Z,5.25
2023-05-23T20:20:35.234Z,6.00
2023-05-23T20:23:03.816Z,5.00
2023-05-23T20:25:33.819Z,4.50
2023-05-23T20:28:02.100Z,6.25
2023-05-23T20:30:30.278Z,4.50
2023-05-23T20:32:58.349Z,5.50
2023-05-23T20:35:26.751Z,5.00
2023-05-23T20:37:54.989Z,5.50
2023-05-23T20:40:23.368Z,4.50
2023-05-23T20:42:53.605Z,5.75
2023-05-23T20:45:21.791Z,3.75
2023-05-23T20:47:49.871Z,5.00
2023-05-23T20:50:19.087Z,6.00
2023-05-23T20:52:47.208Z,6.00
2023-05-23T20:55:15.340Z,5.00
2023-05-23T20:57:43.713Z,4.50
2023-05-23T21:02:50.837Z,4.00
2023-05-23T21:05:18.888Z,4.75
2023-05-23T21:07:47.142Z,3.75
2023-05-23T21:10:15.157Z,4.50
2023-05-23T21:12:49.262Z,5.50
2023-05-23T21:15:17.414Z,4.50
2023-05-23T21:17:45.891Z,6.00
2023-05-23T21:20:16.265Z,3.50
2023-05-23T21:22:44.258Z,3.25
2023-05-23T21:25:12.184Z,4.75
2023-05-23T21:27:40.120Z,3.75
2023-05-23T21:30:10.513Z,5.50
2023-05-23T21:32:38.481Z,5.00
2023-05-23T21:35:07.400Z,4.25
2023-05-23T21:37:37.028Z,4.00
2023-05-23T21:40:05.804Z,3.25
2023-05-23T21:42:33.773Z,4.75
2023-05-23T21:45:01.717Z,2.75
2023-05-23T21:47:29.942Z,3.50
2023-05-23T21:49:57.880Z,4.00
2023-05-23T21:52:25.889Z,4.50
2023-05-23T21:54:55.247Z,4.50
2023-05-23T21:57:23.196Z,3.25
2023-05-23T21:59:51.152Z,3.50
2023-05-23T22:02:19.085Z,3.50
2023-05-23T22:04:47.067Z,3.25
2023-05-23T22:07:15.118Z,4.50
2023-05-23T22:09:43.091Z,3.50
2023-05-23T22:12:13.906Z,3.50
2023-05-23T22:14:41.935Z,4.25
2023-05-23T22:17:10.150Z,3.50
2023-05-23T22:19:38.151Z,3.50
2023-05-23T22:22:07.907Z,4.25
2023-05-23T22:24:35.891Z,3.50
2023-05-23T22:27:04.256Z,2.75
2023-05-23T22:29:34.030Z,2.75
2023-05-23T22:32:02.084Z,3.00
2023-05-23T22:34:30.155Z,2.50
2023-05-23T22:37:00.247Z,3.25
2023-05-23T22:39:28.786Z,3.25
2023-05-23T22:41:56.833Z,4.00
2023-05-23T22:44:24.799Z,2.50
2023-05-23T22:46:55.037Z,3.25
2023-05-23T22:49:25.263Z,2.50
2023-05-23T22:51:53.212Z,4.75
2023-05-23T22:54:21.167Z,2.50
2023-05-23T22:56:49.150Z,3.00
2023-05-23T22:59:17.415Z,3.50
2023-05-23T23:01:46.419Z,2.00
2023-05-23T23:04:16.164Z,3.25
2023-05-23T23:06:44.462Z,3.50
2023-05-23T23:09:12.800Z,2.75
2023-05-23T23:11:40.910Z,2.50
2023-05-23T23:14:08.874Z,2.75
2023-05-23T23:16:38.051Z,3.25
2023-05-23T23:19:06.392Z,3.50
2023-05-23T23:21:35.918Z,2.50
2023-05-23T23:24:03.996Z,2.50
2023-05-23T23:26:31.989Z,2.75
2023-05-23T23:29:00.251Z,2.25
2023-05-23T23:31:28.303Z,3.00
2023-05-23T23:33:56.287Z,3.75
2023-05-23T23:36:24.286Z,2.50
2023-05-23T23:38:53.892Z,1.50
2023-05-23T23:41:22.869Z,2.50
2023-05-23T23:43:50.835Z,3.00
2023-05-23T23:46:20.973Z,3.25
2023-05-23T23:48:49.295Z,3.50
2023-05-23T23:51:17.214Z,3.00
2023-05-23T23:53:47.994Z,3.75
2023-05-23T23:56:18.081Z,2.50
2023-05-23T23:58:46.318Z,3.00
